Terminal Aerodrome Forecast
Issued by NWS Tampa Bay Area, FL

Home | Current Version | Previous Version | Text Only | Print | Product List | Glossary On
Versions: 1 2 3 4 5 6 7 8 9 10 11 12 13
000
FTUS42 KTBW 291740
TAFSRQ
TAF
KSRQ 291740Z 2918/3018 08007KT P6SM VCSH SCT045 SCT250
     FM292000 34008KT P6SM VCTS SCT030CB BKN050
     FM300100 07009KT P6SM SCT050 SCT250
     FM300500 07006KT P6SM SCT250
     FM301400 10007KT P6SM FEW250=

USA.gov is the U.S. government's official web portal to all federal, state and local government web resources and services.